sensor_id;sensor_type;location;lat;lon;timestamp;pressure;altitude;pressure_sealevel;temperature;humidity
49063;BME280;34876;51.464;-0.150;2023-05-20T00:03:44;102703.71;;;19.35;41.49
49063;BME280;34876;51.464;-0.150;2023-05-20T00:06:13;102700.24;;;19.34;41.42
49063;BME280;34876;51.464;-0.150;2023-05-20T00:08:47;102699.21;;;19.45;41.25
49063;BME280;34876;51.464;-0.150;2023-05-20T00:11:16;102703.18;;;19.12;37.60
49063;BME280;34876;51.464;-0.150;2023-05-20T00:13:46;102705.77;;;19.05;42.05
49063;BME280;34876;51.464;-0.150;2023-05-20T00:16:15;102701.81;;;19.26;41.10
49063;BME280;34876;51.464;-0.150;2023-05-20T00:18:44;102698.46;;;19.43;41.26
49063;BME280;34876;51.464;-0.150;2023-05-20T00:21:14;102701.48;;;19.44;41.20
49063;BME280;34876;51.464;-0.150;2023-05-20T00:23:43;102697.64;;;19.31;41.51
49063;BME280;34876;51.464;-0.150;2023-05-20T00:26:18;102691.66;;;19.28;41.50
49063;BME280;34876;51.464;-0.150;2023-05-20T00:28:47;102690.56;;;19.39;41.09
49063;BME280;34876;51.464;-0.150;2023-05-20T00:31:16;102691.69;;;19.43;41.27
49063;BME280;34876;51.464;-0.150;2023-05-20T00:33:45;102692.60;;;19.52;41.05
49063;BME280;34876;51.464;-0.150;2023-05-20T00:36:15;102690.89;;;19.53;41.03
49063;BME280;34876;51.464;-0.150;2023-05-20T00:38:44;102692.94;;;19.50;41.13
49063;BME280;34876;51.464;-0.150;2023-05-20T00:41:13;102692.69;;;19.04;42.01
49063;BME280;34876;51.464;-0.150;2023-05-20T00:43:42;102690.80;;;19.44;41.24
49063;BME280;34876;51.464;-0.150;2023-05-20T00:46:11;102689.58;;;19.48;41.14
49063;BME280;34876;51.464;-0.150;2023-05-20T00:48:42;102688.26;;;18.48;43.25
49063;BME280;34876;51.464;-0.150;2023-05-20T00:51:18;102684.97;;;19.05;42.08
49063;BME280;34876;51.464;-0.150;2023-05-20T00:53:48;102686.97;;;19.27;41.58
49063;BME280;34876;51.464;-0.150;2023-05-20T00:56:17;102688.12;;;19.03;42.13
49063;BME280;34876;51.464;-0.150;2023-05-20T00:58:50;102685.32;;;19.09;42.00
49063;BME280;34876;51.464;-0.150;2023-05-20T01:01:19;102687.11;;;19.31;41.54
49063;BME280;34876;51.464;-0.150;2023-05-20T01:03:50;102682.88;;;19.45;41.26
49063;BME280;34876;51.464;-0.150;2023-05-20T01:06:20;102679.40;;;19.39;40.56
49063;BME280;34876;51.464;-0.150;2023-05-20T01:08:54;102678.84;;;19.19;41.77
49063;BME280;34876;51.464;-0.150;2023-05-20T01:11:30;102679.68;;;19.41;41.31
49063;BME280;34876;51.464;-0.150;2023-05-20T01:14:05;102673.95;;;19.30;41.53
49063;BME280;34876;51.464;-0.150;2023-05-20T01:16:38;102676.39;;;19.33;41.44
49063;BME280;34876;51.464;-0.150;2023-05-20T01:19:17;102671.06;;;19.48;41.17
49063;BME280;34876;51.464;-0.150;2023-05-20T01:21:52;102668.83;;;19.45;41.20
49063;BME280;34876;51.464;-0.150;2023-05-20T01:24:21;102666.46;;;19.31;41.45
49063;BME280;34876;51.464;-0.150;2023-05-20T01:26:54;102667.92;;;19.44;41.21
49063;BME280;34876;51.464;-0.150;2023-05-20T01:29:23;102664.66;;;19.48;41.14
49063;BME280;34876;51.464;-0.150;2023-05-20T01:31:54;102663.32;;;19.50;41.10
49063;BME280;34876;51.464;-0.150;2023-05-20T01:34:25;102660.06;;;19.31;41.45
49063;BME280;34876;51.464;-0.150;2023-05-20T01:37:02;102657.95;;;19.47;41.14
49063;BME280;34876;51.464;-0.150;2023-05-20T01:39:33;102657.48;;;19.15;40.37
49063;BME280;34876;51.464;-0.150;2023-05-20T01:42:04;102651.18;;;18.86;42.47
49063;BME280;34876;51.464;-0.150;2023-05-20T01:44:36;102649.46;;;19.21;41.73
49063;BME280;34876;51.464;-0.150;2023-05-20T01:47:05;102646.98;;;19.31;41.49
49063;BME280;34876;51.464;-0.150;2023-05-20T01:49:35;102646.06;;;19.40;41.29
49063;BME280;34876;51.464;-0.150;2023-05-20T01:52:04;102651.10;;;19.36;41.39
49063;BME280;34876;51.464;-0.150;2023-05-20T01:54:34;102652.91;;;18.99;40.13
49063;BME280;34876;51.464;-0.150;2023-05-20T01:57:04;102651.22;;;19.22;41.69
49063;BME280;34876;51.464;-0.150;2023-05-20T01:59:34;102650.88;;;18.60;42.19
49063;BME280;34876;51.464;-0.150;2023-05-20T02:02:03;102649.68;;;18.48;43.27
49063;BME280;34876;51.464;-0.150;2023-05-20T02:04:32;102647.34;;;18.99;42.15
49063;BME280;34876;51.464;-0.150;2023-05-20T02:07:01;102647.64;;;19.06;41.98
49063;BME280;34876;51.464;-0.150;2023-05-20T02:09:30;102649.85;;;18.94;42.24
49063;BME280;34876;51.464;-0.150;2023-05-20T02:11:59;102651.97;;;18.80;42.63
49063;BME280;34876;51.464;-0.150;2023-05-20T02:14:29;102649.78;;;18.90;42.34
49063;BME280;34876;51.464;-0.150;2023-05-20T02:17:05;102646.69;;;19.16;41.77
49063;BME280;34876;51.464;-0.150;2023-05-20T02:19:35;102649.11;;;19.20;41.66
49063;BME280;34876;51.464;-0.150;2023-05-20T02:22:05;102646.89;;;18.81;42.56
49063;BME280;34876;51.464;-0.150;2023-05-20T02:24:35;102650.30;;;18.75;42.22
49063;BME280;34876;51.464;-0.150;2023-05-20T02:27:05;102646.80;;;18.99;42.11
49063;BME280;34876;51.464;-0.150;2023-05-20T02:29:35;102645.09;;;18.50;43.16
49063;BME280;34876;51.464;-0.150;2023-05-20T02:32:05;102643.56;;;18.86;42.47
49063;BME280;34876;51.464;-0.150;2023-05-20T02:34:34;102641.41;;;18.36;42.41
49063;BME280;34876;51.464;-0.150;2023-05-20T02:37:03;102641.58;;;18.45;41.84
49063;BME280;34876;51.464;-0.150;2023-05-20T02:39:33;102633.49;;;17.97;42.82
49063;BME280;34876;51.464;-0.150;2023-05-20T02:42:02;102636.54;;;18.92;42.36
49063;BME280;34876;51.464;-0.150;2023-05-20T02:44:31;102631.92;;;18.97;42.25
49063;BME280;34876;51.464;-0.150;2023-05-20T02:47:00;102629.94;;;19.12;41.65
49063;BME280;34876;51.464;-0.150;2023-05-20T02:49:30;102629.73;;;17.81;44.48
49063;BME280;34876;51.464;-0.150;2023-05-20T02:51:59;102630.62;;;18.76;42.79
49063;BME280;34876;51.464;-0.150;2023-05-20T02:54:29;102628.78;;;18.75;42.76
49063;BME280;34876;51.464;-0.150;2023-05-20T02:56:58;102626.90;;;18.70;42.65
49063;BME280;34876;51.464;-0.150;2023-05-20T02:59:27;102627.61;;;18.97;42.19
49063;BME280;34876;51.464;-0.150;2023-05-20T03:01:56;102628.58;;;18.86;42.35
49063;BME280;34876;51.464;-0.150;2023-05-20T03:04:25;102623.91;;;19.16;41.79
49063;BME280;34876;51.464;-0.150;2023-05-20T03:06:54;102625.81;;;18.85;42.33
49063;BME280;34876;51.464;-0.150;2023-05-20T03:09:23;102628.55;;;18.89;42.39
49063;BME280;34876;51.464;-0.150;2023-05-20T03:11:53;102626.06;;;18.94;42.30
49063;BME280;34876;51.464;-0.150;2023-05-20T03:14:22;102625.56;;;19.20;41.71
49063;BME280;34876;51.464;-0.150;2023-05-20T03:16:52;102628.41;;;19.24;41.59
49063;BME280;34876;51.464;-0.150;2023-05-20T03:19:22;102631.17;;;19.18;41.71
49063;BME280;34876;51.464;-0.150;2023-05-20T03:21:51;102633.76;;;19.23;41.60
49063;BME280;34876;51.464;-0.150;2023-05-20T03:24:20;102627.96;;;19.29;41.47
49063;BME280;34876;51.464;-0.150;2023-05-20T03:26:50;102632.05;;;19.29;41.47
49063;BME280;34876;51.464;-0.150;2023-05-20T03:29:20;102632.23;;;19.06;42.00
49063;BME280;34876;51.464;-0.150;2023-05-20T03:31:49;102629.34;;;19.13;41.86
49063;BME280;34876;51.464;-0.150;2023-05-20T03:34:18;102633.10;;;19.24;41.63
49063;BME280;34876;51.464;-0.150;2023-05-20T03:36:50;102637.15;;;19.24;41.60
49063;BME280;34876;51.464;-0.150;2023-05-20T03:39:20;102632.84;;;19.27;41.53
49063;BME280;34876;51.464;-0.150;2023-05-20T03:41:49;102633.01;;;19.29;41.50
49063;BME280;34876;51.464;-0.150;2023-05-20T03:44:23;102632.60;;;19.28;41.49
49063;BME280;34876;51.464;-0.150;2023-05-20T03:46:53;102632.13;;;19.29;41.48
49063;BME280;34876;51.464;-0.150;2023-05-20T03:49:22;102634.91;;;19.30;41.46
49063;BME280;34876;51.464;-0.150;2023-05-20T03:51:50;102636.31;;;19.28;41.51
49063;BME280;34876;51.464;-0.150;2023-05-20T03:54:19;102639.46;;;18.88;41.22
49063;BME280;34876;51.464;-0.150;2023-05-20T03:56:48;102635.35;;;19.16;41.74
49063;BME280;34876;51.464;-0.150;2023-05-20T03:59:17;102632.84;;;19.14;41.74
49063;BME280;34876;51.464;-0.150;2023-05-20T04:01:47;102633.26;;;19.03;42.02
49063;BME280;34876;51.464;-0.150;2023-05-20T04:04:16;102630.90;;;18.98;42.08
49063;BME280;34876;51.464;-0.150;2023-05-20T04:06:45;102631.23;;;19.06;41.96
49063;BME280;34876;51.464;-0.150;2023-05-20T04:09:14;102633.57;;;18.94;42.21
49063;BME280;34876;51.464;-0.150;2023-05-20T04:11:44;102627.16;;;19.01;42.06
49063;BME280;34876;51.464;-0.150;2023-05-20T04:14:15;102629.87;;;19.16;41.72
49063;BME280;34876;51.464;-0.150;2023-05-20T04:16:45;102631.04;;;18.81;42.51
49063;BME280;34876;51.464;-0.150;2023-05-20T04:19:14;102627.60;;;19.03;42.05
49063;BME280;34876;51.464;-0.150;2023-05-20T04:21:44;102623.27;;;19.08;41.95
49063;BME280;34876;51.464;-0.150;2023-05-20T04:24:13;102625.48;;;19.01;42.06
49063;BME280;34876;51.464;-0.150;2023-05-20T04:26:42;102624.03;;;19.20;41.62
49063;BME280;34876;51.464;-0.150;2023-05-20T04:29:12;102626.23;;;19.19;41.65
49063;BME280;34876;51.464;-0.150;2023-05-20T04:31:42;102625.95;;;19.18;41.69
49063;BME280;34876;51.464;-0.150;2023-05-20T04:34:12;102623.84;;;19.21;41.63
49063;BME280;34876;51.464;-0.150;2023-05-20T04:36:41;102624.98;;;19.03;42.06
49063;BME280;34876;51.464;-0.150;2023-05-20T04:39:11;102625.48;;;19.01;42.09
49063;BME280;34876;51.464;-0.150;2023-05-20T04:41:39;102625.89;;;19.12;41.68
49063;BME280;34876;51.464;-0.150;2023-05-20T04:44:09;102628.35;;;19.12;41.86
49063;BME280;34876;51.464;-0.150;2023-05-20T04:46:40;102632.15;;;18.69;42.87
49063;BME280;34876;51.464;-0.150;2023-05-20T04:49:09;102633.37;;;18.33;43.70
49063;BME280;34876;51.464;-0.150;2023-05-20T04:51:39;102630.99;;;19.00;42.23
49063;BME280;34876;51.464;-0.150;2023-05-20T04:54:10;102626.84;;;19.12;41.87
49063;BME280;34876;51.464;-0.150;2023-05-20T04:56:40;102628.17;;;19.05;41.82
49063;BME280;34876;51.464;-0.150;2023-05-20T04:59:09;102626.93;;;19.15;41.83
49063;BME280;34876;51.464;-0.150;2023-05-20T05:01:39;102624.08;;;19.16;41.77
49063;BME280;34876;51.464;-0.150;2023-05-20T05:04:08;102622.22;;;18.99;42.11
49063;BME280;34876;51.464;-0.150;2023-05-20T05:06:38;102622.59;;;19.00;42.23
49063;BME280;34876;51.464;-0.150;2023-05-20T05:09:07;102626.01;;;18.94;42.32
49063;BME280;34876;51.464;-0.150;2023-05-20T05:11:36;102624.22;;;19.14;41.87
49063;BME280;34876;51.464;-0.150;2023-05-20T05:14:11;102624.94;;;18.21;44.13
49063;BME280;34876;51.464;-0.150;2023-05-20T05:16:40;102625.68;;;18.53;43.35
49063;BME280;34876;51.464;-0.150;2023-05-20T05:19:10;102623.07;;;18.30;43.50
49063;BME280;34876;51.464;-0.150;2023-05-20T05:21:39;102623.29;;;18.73;42.87
49063;BME280;34876;51.464;-0.150;2023-05-20T05:24:09;102622.90;;;18.69;42.92
49063;BME280;34876;51.464;-0.150;2023-05-20T05:26:39;102616.27;;;18.59;42.86
49063;BME280;34876;51.464;-0.150;2023-05-20T05:29:09;102616.71;;;18.16;44.18
49063;BME280;34876;51.464;-0.150;2023-05-20T05:31:40;102618.08;;;18.71;42.97
49063;BME280;34876;51.464;-0.150;2023-05-20T05:34:10;102622.45;;;18.83;42.64
49063;BME280;34876;51.464;-0.150;2023-05-20T05:36:41;102621.48;;;18.96;42.39
49063;BME280;34876;51.464;-0.150;2023-05-20T05:39:12;102621.64;;;18.72;42.92
49063;BME280;34876;51.464;-0.150;2023-05-20T05:41:41;102622.85;;;18.46;43.62
49063;BME280;34876;51.464;-0.150;2023-05-20T05:44:11;102624.47;;;18.85;42.67
49063;BME280;34876;51.464;-0.150;2023-05-20T05:46:39;102624.15;;;18.95;42.46
49063;BME280;34876;51.464;-0.150;2023-05-20T05:49:08;102624.87;;;18.89;42.60
49063;BME280;34876;51.464;-0.150;2023-05-20T05:51:37;102630.20;;;19.03;42.12
49063;BME280;34876;51.464;-0.150;2023-05-20T05:54:06;102626.89;;;18.75;42.86
49063;BME280;34876;51.464;-0.150;2023-05-20T05:56:36;102626.18;;;18.70;42.95
49063;BME280;34876;51.464;-0.150;2023-05-20T05:59:05;102622.84;;;17.66;45.39
49063;BME280;34876;51.464;-0.150;2023-05-20T06:01:34;102626.13;;;18.65;43.18
49063;BME280;34876;51.464;-0.150;2023-05-20T06:04:03;102620.43;;;17.81;44.94
49063;BME280;34876;51.464;-0.150;2023-05-20T06:06:33;102625.09;;;18.17;44.23
49063;BME280;34876;51.464;-0.150;2023-05-20T06:09:09;102624.01;;;18.79;42.89
49063;BME280;34876;51.464;-0.150;2023-05-20T06:11:44;102627.80;;;18.84;42.66
49063;BME280;34876;51.464;-0.150;2023-05-20T06:14:14;102623.87;;;19.00;42.34
49063;BME280;34876;51.464;-0.150;2023-05-20T06:16:42;102624.90;;;19.09;42.11
49063;BME280;34876;51.464;-0.150;2023-05-20T06:19:11;102624.00;;;18.76;42.97
49063;BME280;34876;51.464;-0.150;2023-05-20T06:21:41;102622.26;;;19.06;42.29
49063;BME280;34876;51.464;-0.150;2023-05-20T06:24:09;102623.67;;;18.38;43.53
49063;BME280;34876;51.464;-0.150;2023-05-20T06:26:38;102623.68;;;18.81;42.89
49063;BME280;34876;51.464;-0.150;2023-05-20T06:29:09;102624.00;;;18.84;42.80
49063;BME280;34876;51.464;-0.150;2023-05-20T06:31:39;102620.98;;;18.16;44.48
49063;BME280;34876;51.464;-0.150;2023-05-20T06:34:08;102614.95;;;18.93;42.64
49063;BME280;34876;51.464;-0.150;2023-05-20T06:36:37;102614.95;;;19.06;42.28
49063;BME280;34876;51.464;-0.150;2023-05-20T06:39:06;102610.00;;;18.89;42.82
49063;BME280;34876;51.464;-0.150;2023-05-20T06:41:35;102611.52;;;18.57;43.44
49063;BME280;34876;51.464;-0.150;2023-05-20T06:44:05;102606.63;;;18.40;43.70
49063;BME280;34876;51.464;-0.150;2023-05-20T06:46:38;102604.93;;;18.88;42.67
49063;BME280;34876;51.464;-0.150;2023-05-20T06:49:08;102603.32;;;19.11;42.17
49063;BME280;34876;51.464;-0.150;2023-05-20T06:51:38;102607.93;;;18.65;43.31
49063;BME280;34876;51.464;-0.150;2023-05-20T06:54:07;102603.60;;;18.28;44.08
49063;BME280;34876;51.464;-0.150;2023-05-20T06:56:38;102608.12;;;18.39;44.07
49063;BME280;34876;51.464;-0.150;2023-05-20T06:59:08;102605.52;;;18.52;43.67
49063;BME280;34876;51.464;-0.150;2023-05-20T07:01:37;102601.50;;;18.09;44.64
49063;BME280;34876;51.464;-0.150;2023-05-20T07:04:07;102596.45;;;18.18;44.43
49063;BME280;34876;51.464;-0.150;2023-05-20T07:06:36;102604.72;;;16.99;47.76
49063;BME280;34876;51.464;-0.150;2023-05-20T07:09:05;102596.93;;;18.34;44.22
49063;BME280;34876;51.464;-0.150;2023-05-20T07:11:34;102593.08;;;18.42;43.96
49063;BME280;34876;51.464;-0.150;2023-05-20T07:14:03;102594.10;;;18.71;43.50
49063;BME280;34876;51.464;-0.150;2023-05-20T07:16:32;102593.25;;;17.92;45.13
49063;BME280;34876;51.464;-0.150;2023-05-20T07:19:02;102595.34;;;18.42;44.31
49063;BME280;34876;51.464;-0.150;2023-05-20T07:21:31;102595.74;;;18.68;43.38
49063;BME280;34876;51.464;-0.150;2023-05-20T07:24:00;102595.37;;;18.49;43.83
49063;BME280;34876;51.464;-0.150;2023-05-20T07:26:30;102599.03;;;18.42;44.01
49063;BME280;34876;51.464;-0.150;2023-05-20T07:28:59;102595.34;;;18.37;44.17
49063;BME280;34876;51.464;-0.150;2023-05-20T07:31:28;102596.96;;;18.58;43.66
49063;BME280;34876;51.464;-0.150;2023-05-20T07:33:57;102596.81;;;18.64;43.50
49063;BME280;34876;51.464;-0.150;2023-05-20T07:36:27;102594.89;;;19.02;42.55
49063;BME280;34876;51.464;-0.150;2023-05-20T07:38:57;102594.16;;;18.98;42.77
49063;BME280;34876;51.464;-0.150;2023-05-20T07:41:26;102588.86;;;19.16;42.18
49063;BME280;34876;51.464;-0.150;2023-05-20T07:43:55;102585.99;;;18.98;42.63
49063;BME280;34876;51.464;-0.150;2023-05-20T07:46:25;102588.18;;;19.07;42.41
49063;BME280;34876;51.464;-0.150;2023-05-20T07:48:56;102586.44;;;19.13;42.33
49063;BME280;34876;51.464;-0.150;2023-05-20T07:51:27;102585.31;;;19.15;42.28
49063;BME280;34876;51.464;-0.150;2023-05-20T07:53:57;102585.20;;;19.24;42.05
49063;BME280;34876;51.464;-0.150;2023-05-20T07:56:26;102586.70;;;19.25;42.05
49063;BME280;34876;51.464;-0.150;2023-05-20T07:58:56;102585.47;;;19.17;42.24
49063;BME280;34876;51.464;-0.150;2023-05-20T08:01:25;102582.45;;;19.30;41.98
49063;BME280;34876;51.464;-0.150;2023-05-20T08:03:55;102578.28;;;19.25;42.06
49063;BME280;34876;51.464;-0.150;2023-05-20T08:06:24;102575.64;;;19.35;41.85
49063;BME280;34876;51.464;-0.150;2023-05-20T08:08:55;102571.01;;;19.09;42.45
49063;BME280;34876;51.464;-0.150;2023-05-20T08:11:31;102560.99;;;19.35;41.89
49063;BME280;34876;51.464;-0.150;2023-05-20T08:14:00;102557.72;;;19.33;41.93
49063;BME280;34876;51.464;-0.150;2023-05-20T08:16:29;102561.79;;;19.12;42.48
49063;BME280;34876;51.464;-0.150;2023-05-20T08:18:58;102558.95;;;19.08;42.76
49063;BME280;34876;51.464;-0.150;2023-05-20T08:21:27;102555.87;;;19.13;42.46
49063;BME280;34876;51.464;-0.150;2023-05-20T08:23:56;102545.28;;;19.38;41.86
49063;BME280;34876;51.464;-0.150;2023-05-20T08:26:26;102546.22;;;19.50;41.64
49063;BME280;34876;51.464;-0.150;2023-05-20T08:28:55;102549.47;;;19.06;42.72
49063;BME280;34876;51.464;-0.150;2023-05-20T08:31:24;102550.32;;;18.93;43.18
49063;BME280;34876;51.464;-0.150;2023-05-20T08:33:54;102544.86;;;18.80;43.46
49063;BME280;34876;51.464;-0.150;2023-05-20T08:36:23;102547.79;;;18.55;45.85
49063;BME280;34876;51.464;-0.150;2023-05-20T08:38:52;102545.39;;;18.94;43.12
49063;BME280;34876;51.464;-0.150;2023-05-20T08:41:21;102546.25;;;18.90;43.26
49063;BME280;34876;51.464;-0.150;2023-05-20T08:43:54;102545.24;;;19.05;44.26
49063;BME280;34876;51.464;-0.150;2023-05-20T08:46:23;102549.13;;;18.81;45.15
49063;BME280;34876;51.464;-0.150;2023-05-20T08:48:53;102546.84;;;18.41;45.80
49063;BME280;34876;51.464;-0.150;2023-05-20T08:51:26;102531.83;;;19.11;42.83
49063;BME280;34876;51.464;-0.150;2023-05-20T08:54:04;102530.17;;;19.28;42.43
49063;BME280;34876;51.464;-0.150;2023-05-20T08:56:37;102528.38;;;19.12;43.81
49063;BME280;34876;51.464;-0.150;2023-05-20T08:59:07;102526.33;;;19.27;43.57
49063;BME280;34876;51.464;-0.150;2023-05-20T09:01:40;102526.17;;;19.34;42.41
49063;BME280;34876;51.464;-0.150;2023-05-20T09:04:15;102522.19;;;19.50;41.91
49063;BME280;34876;51.464;-0.150;2023-05-20T09:06:45;102523.19;;;19.62;41.60
49063;BME280;34876;51.464;-0.150;2023-05-20T09:09:18;102521.64;;;19.17;44.23
49063;BME280;34876;51.464;-0.150;2023-05-20T09:11:47;102519.69;;;19.54;41.83
49063;BME280;34876;51.464;-0.150;2023-05-20T09:14:18;102516.68;;;19.52;42.84
49063;BME280;34876;51.464;-0.150;2023-05-20T09:16:47;102514.50;;;19.18;42.74
49063;BME280;34876;51.464;-0.150;2023-05-20T09:19:16;102509.72;;;19.71;41.55
49063;BME280;34876;51.464;-0.150;2023-05-20T09:21:46;102508.97;;;19.63;41.77
49063;BME280;34876;51.464;-0.150;2023-05-20T09:24:21;102502.76;;;19.71;41.49
49063;BME280;34876;51.464;-0.150;2023-05-20T09:26:49;102499.76;;;19.80;41.31
49063;BME280;34876;51.464;-0.150;2023-05-20T09:29:18;102496.56;;;19.87;41.19
49063;BME280;34876;51.464;-0.150;2023-05-20T09:31:48;102494.65;;;19.93;41.09
49063;BME280;34876;51.464;-0.150;2023-05-20T09:34:21;102492.97;;;20.43;40.15
49063;BME280;34876;51.464;-0.150;2023-05-20T09:36:51;102486.93;;;20.21;41.55
49063;BME280;34876;51.464;-0.150;2023-05-20T09:39:25;102484.54;;;19.72;42.67
49063;BME280;34876;51.464;-0.150;2023-05-20T09:42:01;102483.76;;;19.91;42.15
49063;BME280;34876;51.464;-0.150;2023-05-20T09:44:33;102478.67;;;19.91;41.12
49063;BME280;34876;51.464;-0.150;2023-05-20T09:47:04;102477.28;;;20.47;41.95
49063;BME280;34876;51.464;-0.150;2023-05-20T09:49:34;102474.52;;;20.54;39.70
49063;BME280;34876;51.464;-0.150;2023-05-20T09:52:06;102476.29;;;19.98;42.72
49063;BME280;34876;51.464;-0.150;2023-05-20T09:54:36;102469.43;;;20.04;41.89
49063;BME280;34876;51.464;-0.150;2023-05-20T09:57:06;102463.09;;;20.25;42.58
49063;BME280;34876;51.464;-0.150;2023-05-20T09:59:37;102459.53;;;20.42;40.11
49063;BME280;34876;51.464;-0.150;2023-05-20T10:02:07;102460.26;;;20.93;41.36
49063;BME280;34876;51.464;-0.150;2023-05-20T10:04:43;102450.51;;;20.75;39.35
49063;BME280;34876;51.464;-0.150;2023-05-20T10:07:28;102456.94;;;20.50;41.28
49063;BME280;34876;51.464;-0.150;2023-05-20T10:10:12;102447.48;;;20.29;40.29
49063;BME280;34876;51.464;-0.150;2023-05-20T10:12:50;102444.45;;;20.35;41.70
49063;BME280;34876;51.464;-0.150;2023-05-20T10:15:27;102442.38;;;19.80;41.83
49063;BME280;34876;51.464;-0.150;2023-05-20T10:18:05;102444.11;;;19.46;43.11
49063;BME280;34876;51.464;-0.150;2023-05-20T10:20:45;102437.83;;;19.70;42.52
49063;BME280;34876;51.464;-0.150;2023-05-20T10:23:23;102433.38;;;19.92;42.32
49063;BME280;34876;51.464;-0.150;2023-05-20T10:25:56;102430.95;;;19.86;42.47
49063;BME280;34876;51.464;-0.150;2023-05-20T10:28:30;102431.22;;;20.24;41.66
49063;BME280;34876;51.464;-0.150;2023-05-20T10:31:02;102427.87;;;20.22;41.22
49063;BME280;34876;51.464;-0.150;2023-05-20T10:33:43;102423.56;;;20.33;40.54
49063;BME280;34876;51.464;-0.150;2023-05-20T10:36:22;102424.27;;;19.70;42.29
49063;BME280;34876;51.464;-0.150;2023-05-20T10:38:54;102430.92;;;19.88;42.56
49063;BME280;34876;51.464;-0.150;2023-05-20T10:41:25;102430.47;;;19.44;43.38
49063;BME280;34876;51.464;-0.150;2023-05-20T10:44:03;102427.48;;;19.77;43.33
49063;BME280;34876;51.464;-0.150;2023-05-20T10:46:33;102419.14;;;20.11;41.93
49063;BME280;34876;51.464;-0.150;2023-05-20T10:49:05;102416.70;;;19.76;41.91
49063;BME280;34876;51.464;-0.150;2023-05-20T10:51:46;102422.55;;;19.63;41.97
49063;BME280;34876;51.464;-0.150;2023-05-20T10:54:15;102422.05;;;19.93;41.19
49063;BME280;34876;51.464;-0.150;2023-05-20T10:56:51;102418.17;;;19.74;40.61
49063;BME280;34876;51.464;-0.150;2023-05-20T10:59:21;102417.57;;;19.85;39.28
49063;BME280;34876;51.464;-0.150;2023-05-20T11:01:51;102405.00;;;19.57;41.59
49063;BME280;34876;51.464;-0.150;2023-05-20T11:04:22;102409.76;;;19.48;40.54
49063;BME280;34876;51.464;-0.150;2023-05-20T11:06:51;102406.36;;;19.81;39.22
49063;BME280;34876;51.464;-0.150;2023-05-20T11:09:21;102401.32;;;19.95;40.83
49063;BME280;34876;51.464;-0.150;2023-05-20T11:11:50;102401.82;;;19.54;40.40
49063;BME280;34876;51.464;-0.150;2023-05-20T11:14:20;102398.96;;;19.70;41.54
49063;BME280;34876;51.464;-0.150;2023-05-20T11:16:51;102401.33;;;19.84;40.93
49063;BME280;34876;51.464;-0.150;2023-05-20T11:19:21;102394.52;;;19.54;41.90
49063;BME280;34876;51.464;-0.150;2023-05-20T11:21:51;102399.41;;;19.63;40.29
49063;BME280;34876;51.464;-0.150;2023-05-20T11:24:23;102399.71;;;19.75;41.06
49063;BME280;34876;51.464;-0.150;2023-05-20T11:26:53;102394.64;;;19.77;38.71
49063;BME280;34876;51.464;-0.150;2023-05-20T11:29:22;102391.28;;;19.69;41.15
49063;BME280;34876;51.464;-0.150;2023-05-20T11:31:51;102387.98;;;19.51;41.61
49063;BME280;34876;51.464;-0.150;2023-05-20T11:34:21;102389.66;;;19.50;39.09
49063;BME280;34876;51.464;-0.150;2023-05-20T11:36:55;102386.72;;;19.65;41.51
49063;BME280;34876;51.464;-0.150;2023-05-20T11:39:28;102385.98;;;19.88;40.66
49063;BME280;34876;51.464;-0.150;2023-05-20T11:41:59;102382.41;;;19.71;39.04
49063;BME280;34876;51.464;-0.150;2023-05-20T11:44:29;102371.17;;;19.68;40.46
49063;BME280;34876;51.464;-0.150;2023-05-20T11:46:59;102377.59;;;19.53;39.54
49063;BME280;34876;51.464;-0.150;2023-05-20T11:49:29;102366.88;;;19.56;40.27
49063;BME280;34876;51.464;-0.150;2023-05-20T11:51:57;102357.40;;;19.73;41.29
49063;BME280;34876;51.464;-0.150;2023-05-20T11:54:27;102361.74;;;19.82;41.09
49063;BME280;34876;51.464;-0.150;2023-05-20T11:56:57;102353.99;;;20.02;39.84
49063;BME280;34876;51.464;-0.150;2023-05-20T11:59:26;102348.56;;;19.87;41.04
49063;BME280;34876;51.464;-0.150;2023-05-20T12:01:55;102353.58;;;19.83;40.30
49063;BME280;34876;51.464;-0.150;2023-05-20T12:04:24;102357.91;;;19.77;38.99
49063;BME280;34876;51.464;-0.150;2023-05-20T12:06:54;102350.60;;;19.50;41.54
49063;BME280;34876;51.464;-0.150;2023-05-20T12:09:24;102348.35;;;19.39;41.82
49063;BME280;34876;51.464;-0.150;2023-05-20T12:11:53;102345.31;;;19.47;39.03
49063;BME280;34876;51.464;-0.150;2023-05-20T12:14:22;102347.68;;;19.27;39.96
49063;BME280;34876;51.464;-0.150;2023-05-20T12:16:51;102347.31;;;19.40;40.02
49063;BME280;34876;51.464;-0.150;2023-05-20T12:19:21;102336.72;;;19.76;39.84
49063;BME280;34876;51.464;-0.150;2023-05-20T12:21:50;102329.28;;;19.78;38.63
49063;BME280;34876;51.464;-0.150;2023-05-20T12:24:19;102325.72;;;19.70;39.10
49063;BME280;34876;51.464;-0.150;2023-05-20T12:26:48;102326.79;;;19.38;40.94
49063;BME280;34876;51.464;-0.150;2023-05-20T12:29:18;102321.16;;;19.40;39.92
49063;BME280;34876;51.464;-0.150;2023-05-20T12:31:47;102325.83;;;19.40;41.78
49063;BME280;34876;51.464;-0.150;2023-05-20T12:34:17;102323.40;;;19.48;40.05
49063;BME280;34876;51.464;-0.150;2023-05-20T12:36:46;102320.87;;;19.84;39.60
49063;BME280;34876;51.464;-0.150;2023-05-20T12:39:15;102316.49;;;19.93;40.73
49063;BME280;34876;51.464;-0.150;2023-05-20T12:41:45;102325.14;;;19.42;38.44
49063;BME280;34876;51.464;-0.150;2023-05-20T12:44:13;102323.06;;;19.21;41.98
49063;BME280;34876;51.464;-0.150;2023-05-20T12:46:43;102327.87;;;19.61;41.58
49063;BME280;34876;51.464;-0.150;2023-05-20T12:49:13;102323.00;;;19.75;40.45
49063;BME280;34876;51.464;-0.150;2023-05-20T12:51:41;102319.86;;;19.76;37.73
49063;BME280;34876;51.464;-0.150;2023-05-20T12:54:09;102317.89;;;19.61;41.33
49063;BME280;34876;51.464;-0.150;2023-05-20T12:56:39;102320.67;;;19.48;38.10
49063;BME280;34876;51.464;-0.150;2023-05-20T12:59:07;102323.74;;;19.59;41.44